Terminal Aerodrome Forecast
Issued by NWS

Home | Current Version | Previous Version | Graphics & Text | Print | Product List | Glossary On
Versions: 1 2 3 4 5 6 7 8 9 10 11 12 13 14 15 16 17 18 19 20 21 22 23 24 25
000
FTUS45 KGGW 300939 AAA
TAFOLF
TAF AMD
KOLF 300939Z 3010/3106 07006KT P6SM BKN120 WS020/16030KT
     FM301600 10010KT P6SM SCT120
     FM302100 12013KT P6SM FEW110=

USA.gov is the U.S. government's official web portal to all federal, state and local government web resources and services.